New Orleans, LA (70114)

7:07 AM CST on March 04, 2015 (GMT -0600)
Gulf Coast Special Systems | Change Station
CLOSE
Current Station
Personal Weather Station
Location: Gretna, LA
Elevation: 25 ft
Nearby Weather Stations
Active Advisory: Dense Fog Advisory Active Notice: Public Information Statement

Elev 25 ft 29.91 °N, 90.05 °W | Updated 14 seconds ago

Overcast
Overcast
67.3 °F
Feels Like 67.3 °F
N
1.0
Wind Variable Wind from SE
Gusts 2.0 mph

Today
High -- | Low -- °F
--% Chance of Precip.
Yesterday
High -- | Low -- °F
Precip. -- in
6:22 AM 6:01 PM
Waxing Gibbous, 99% visible
Pressure 29.99 in
Visibility 5.0 miles
Clouds Scattered Clouds 2800 ft
Mostly Cloudy 3500 ft
Mostly Cloudy 6500 ft
Dew Point 67 °F
Humidity 98%
Rainfall 0.00 in
Snow Depth Not available.
UV 0 out of 12
Pollen 10.40 out of 12
Air Quality Not available.
Flu Activity Not available.
METAR KNBG 041255Z 17006KT 5SM BR SCT028 BKN035 BKN065 20/18 A2999 RMK AO2 RAB06E15 SLP153 P0000 T02000183 $

More Conditions Fewer Conditions

Pressure 29.99 in
Visibility 5.0 miles
Clouds Scattered Clouds 2800 ft
Mostly Cloudy 3500 ft
Mostly Cloudy 6500 ft
Dew Point 67 °F
Humidity 98%
Rainfall 0.00 in
Snow Depth Not available.
UV 0 out of 12
Pollen 10.40 out of 12
Air Quality Not available.
Flu Activity Not available.
METAR KNBG 041255Z 17006KT 5SM BR SCT028 BKN035 BKN065 20/18 A2999 RMK AO2 RAB06E15 SLP153 P0000 T02000183 $

More Conditions Fewer Conditions

10-Day Weather Forecast

Almanac

Astronomy

Mar. 04, 2015 Rise Set
Actual Time
Civil Twilight
Nautical Twilight
Astronomical Twilight
Moon
Length of Visible Light
Length of Day
Tomorrow will be .
, % of the Moon is Illuminated

Today's Extremes

State Highs State Lows

Community

WunderPhotos

Upload Photos

1,802,441 photos uploaded!

WunderBlogs® & News

Nearby

Air Quality

  Air Quality AQ Index Pollutant
Not available.

Snow Depth

Station Depth Elevation

Earthquake Activity

City Distance Mag. Time & Date
Minimum magnitude displayed is 2.5.

Coastal Water Temperatures

Place Temperature

Nearby Weather Stations

Dense Fog Advisory
Statement as of 4:12 AM CST on March 04, 2015

... Dense fog advisory remains in effect until 9 am CST this
morning...

* visibility... one quarter mile or less at times.

* Duration... through mid morning today.

* Impacts... reduced visibilities on area roadways could cause
hazardous driving conditions through mid morning today.

Precautionary/preparedness actions...

A dense fog advisory means visibilities will frequently be
reduced to less than one quarter mile. If driving... slow down...
use your headlights... and leave plenty of distance ahead of you.